aviador You're here:

KFRG Decoded Metar

FARMINGDALE in NY, USA
Report Time2018-01-18 10:53:00
UTC Time2018-01-18 11:39:03
Flight Rules vfr VFR
Wind360° at 07 kt
W.Decomp.*RWY 01: 7.0 kt HW 0.5 kt RCW
RWY 32: 4.1 kt HW 5.7 kt RCW
Visibility9999 m
Phenomena:N/A
Clouds:N/A
Expected CloudBase > 2,000 ft AGL from Temp-Dew spread
CeilingNone
Temp-7°C (ISA -22)
Dew Point-12°C (68% RH)
AAT-12.7°C
QNH1017 hPa
Density Alt-2,749 ft
Elevation69 ft
Report Wrong Elevation
Raw Report
METAR KFRG 181053Z AUTO 36007KT 10SM CLR M07/M12 A3004 RMK AO2 SLP172
T10721122=

Extra information for KFRG:More info

Metar Taf Metar & Taf Last 4 Metars F.Rules Stats Wind Profile Meteogram Temp Stats Airport Information Weather charts Add Link Nearby VenuesMetar ALERT Operation Metar Decoded Social comments

AIRNAV info for KFRG